KACY/ACY METAR and TAF weather

Enter ICAO airport designator
Station Type Date Time Source
KACY METAR 2020/03/29 11:54 UTC NOAA

KACY 291154Z 03006KT 1SM BR OVC002 09/08 A2996 RMK AO2 SFC VIS 1 1/4 SLP144 70030 T00940083 10106 20089 53011


Station Type Date Time Source
KACY Decoded METAR 2020/03/29 11:54 UTC NOAA

ATLANTIC CITY INTERNATIONAL, NJ, United States (KACY) 39-28N 74-35W 35M
Mar 29, 2020 - 07:54 AM EDT / 2020.03.29 1154 UTC
Wind: from the NNE (030 degrees) at 7 MPH (6 KT):0
Visibility: 1 mile(s):0
Sky conditions: overcast
Weather: mist
Temperature: 48.9 F (9.4 C)
Dew Point: 46.9 F (8.3 C)
Relative Humidity: 92%
Pressure (altimeter): 29.96 in. Hg (1014 hPa)
Pressure tendency: 0.03 inches (1.1 hPa) higher than three hours ago
ob: KACY 291154Z 03006KT 1SM BR OVC002 09/08 A2996 RMK AO2 SFC VIS 1 1/4 SLP144 70030 T00940083 10106 20089 53011
cycle: 12

Station Type Date Time Source
KACY TAF 2020/03/29 12:28 UTC NOAA

TAF KACY 291123Z 2912/3012 04012KT 5SM BR OVC005
TEMPO 2912/2915 2SM -DZ BR OVC002
FM291800 VRB04KT P6SM OVC008
FM300300 00000KT P6SM SCT003 BKN015
FM300900 VRB03KT P6SM SCT020

Example: see airport list